sensor_id;sensor_type;location;lat;lon;timestamp;temperature;humidity
8858;DHT22;4465;50.904;4.696;2022-12-10T00:01:43;0.20;99.90
8858;DHT22;4465;50.904;4.696;2022-12-10T00:04:12;0.30;99.90
8858;DHT22;4465;50.904;4.696;2022-12-10T00:06:39;0.20;99.90
8858;DHT22;4465;50.904;4.696;2022-12-10T00:09:07;0.20;99.90
8858;DHT22;4465;50.904;4.696;2022-12-10T00:11:34;0.20;99.90
8858;DHT22;4465;50.904;4.696;2022-12-10T00:14:00;0.20;99.90
8858;DHT22;4465;50.904;4.696;2022-12-10T00:16:28;0.10;99.90
8858;DHT22;4465;50.904;4.696;2022-12-10T00:18:55;0.10;99.90
8858;DHT22;4465;50.904;4.696;2022-12-10T00:21:26;0.10;99.90
8858;DHT22;4465;50.904;4.696;2022-12-10T00:23:53;0.10;99.90
8858;DHT22;4465;50.904;4.696;2022-12-10T00:26:22;0.10;99.90
8858;DHT22;4465;50.904;4.696;2022-12-10T00:28:49;0.00;99.90
8858;DHT22;4465;50.904;4.696;2022-12-10T00:31:17;0.00;99.90
8858;DHT22;4465;50.904;4.696;2022-12-10T00:33:46;0.10;99.90
8858;DHT22;4465;50.904;4.696;2022-12-10T00:36:18;0.10;99.90
8858;DHT22;4465;50.904;4.696;2022-12-10T00:38:47;0.10;99.90
8858;DHT22;4465;50.904;4.696;2022-12-10T00:41:15;0.10;99.90
8858;DHT22;4465;50.904;4.696;2022-12-10T00:43:41;0.10;99.90
8858;DHT22;4465;50.904;4.696;2022-12-10T00:46:08;0.10;99.90
8858;DHT22;4465;50.904;4.696;2022-12-10T00:48:36;0.10;99.90
8858;DHT22;4465;50.904;4.696;2022-12-10T00:51:14;0.00;99.90
8858;DHT22;4465;50.904;4.696;2022-12-10T00:53:41;0.00;99.90
8858;DHT22;4465;50.904;4.696;2022-12-10T00:56:11;0.00;99.90
8858;DHT22;4465;50.904;4.696;2022-12-10T00:58:38;-0.10;99.90
8858;DHT22;4465;50.904;4.696;2022-12-10T01:01:20;-0.10;99.90
8858;DHT22;4465;50.904;4.696;2022-12-10T01:03:48;-0.10;99.90
8858;DHT22;4465;50.904;4.696;2022-12-10T01:06:18;-0.10;99.90
8858;DHT22;4465;50.904;4.696;2022-12-10T01:08:46;-0.10;99.90
8858;DHT22;4465;50.904;4.696;2022-12-10T01:11:16;-0.10;99.90
8858;DHT22;4465;50.904;4.696;2022-12-10T01:13:43;-0.10;99.90
8858;DHT22;4465;50.904;4.696;2022-12-10T01:16:14;-0.10;99.90
8858;DHT22;4465;50.904;4.696;2022-12-10T01:18:40;-0.20;99.90
8858;DHT22;4465;50.904;4.696;2022-12-10T01:21:12;-0.10;99.90
8858;DHT22;4465;50.904;4.696;2022-12-10T01:23:40;-0.10;99.90
8858;DHT22;4465;50.904;4.696;2022-12-10T01:26:10;-0.20;99.90
8858;DHT22;4465;50.904;4.696;2022-12-10T01:28:40;-0.20;99.90
8858;DHT22;4465;50.904;4.696;2022-12-10T01:31:19;-0.20;99.90
8858;DHT22;4465;50.904;4.696;2022-12-10T01:33:48;-0.10;99.90
8858;DHT22;4465;50.904;4.696;2022-12-10T01:36:22;-0.10;99.90
8858;DHT22;4465;50.904;4.696;2022-12-10T01:38:49;-0.10;99.90
8858;DHT22;4465;50.904;4.696;2022-12-10T01:41:21;-0.20;99.90
8858;DHT22;4465;50.904;4.696;2022-12-10T01:44:56;-0.20;99.90
8858;DHT22;4465;50.904;4.696;2022-12-10T01:46:56;-0.20;99.90
8858;DHT22;4465;50.904;4.696;2022-12-10T01:49:36;-0.20;99.90
8858;DHT22;4465;50.904;4.696;2022-12-10T01:52:06;-0.20;99.90
8858;DHT22;4465;50.904;4.696;2022-12-10T01:54:35;-0.20;99.90
8858;DHT22;4465;50.904;4.696;2022-12-10T01:59:49;-0.20;99.90
8858;DHT22;4465;50.904;4.696;2022-12-10T02:10:43;-0.30;99.90
8858;DHT22;4465;50.904;4.696;2022-12-10T02:20:57;-0.30;99.90
8858;DHT22;4465;50.904;4.696;2022-12-10T02:23:47;-0.30;99.90
8858;DHT22;4465;50.904;4.696;2022-12-10T02:29:21;-0.30;99.90
8858;DHT22;4465;50.904;4.696;2022-12-10T02:31:55;-0.30;99.90
8858;DHT22;4465;50.904;4.696;2022-12-10T02:34:23;-0.30;99.90
8858;DHT22;4465;50.904;4.696;2022-12-10T02:36:52;-0.30;99.90
8858;DHT22;4465;50.904;4.696;2022-12-10T02:39:23;-0.30;99.90
8858;DHT22;4465;50.904;4.696;2022-12-10T02:41:55;-0.30;99.90
8858;DHT22;4465;50.904;4.696;2022-12-10T02:44:24;-0.30;99.90
8858;DHT22;4465;50.904;4.696;2022-12-10T02:46:54;-0.30;99.90
8858;DHT22;4465;50.904;4.696;2022-12-10T02:49:22;-0.30;99.90
8858;DHT22;4465;50.904;4.696;2022-12-10T02:51:52;-0.30;99.90
8858;DHT22;4465;50.904;4.696;2022-12-10T02:54:37;-0.30;99.90
8858;DHT22;4465;50.904;4.696;2022-12-10T02:57:34;-0.40;99.90
8858;DHT22;4465;50.904;4.696;2022-12-10T03:00:08;-0.40;99.90
8858;DHT22;4465;50.904;4.696;2022-12-10T03:08:06;-0.40;99.90
8858;DHT22;4465;50.904;4.696;2022-12-10T03:16:39;-0.40;99.90
8858;DHT22;4465;50.904;4.696;2022-12-10T03:19:11;-0.40;99.90
8858;DHT22;4465;50.904;4.696;2022-12-10T03:21:39;-0.40;99.90
8858;DHT22;4465;50.904;4.696;2022-12-10T03:24:09;-0.40;99.90
8858;DHT22;4465;50.904;4.696;2022-12-10T03:26:38;-0.40;99.90
8858;DHT22;4465;50.904;4.696;2022-12-10T03:29:17;-0.40;99.90
8858;DHT22;4465;50.904;4.696;2022-12-10T03:31:45;-0.30;99.90
8858;DHT22;4465;50.904;4.696;2022-12-10T03:34:11;-0.30;99.90
8858;DHT22;4465;50.904;4.696;2022-12-10T03:36:39;-0.30;99.90
8858;DHT22;4465;50.904;4.696;2022-12-10T03:39:07;-0.30;99.90
8858;DHT22;4465;50.904;4.696;2022-12-10T03:41:35;-0.30;99.90
8858;DHT22;4465;50.904;4.696;2022-12-10T03:44:04;-0.30;99.90
8858;DHT22;4465;50.904;4.696;2022-12-10T03:46:30;-0.30;99.90
8858;DHT22;4465;50.904;4.696;2022-12-10T03:48:58;-0.30;99.90
8858;DHT22;4465;50.904;4.696;2022-12-10T03:51:25;-0.30;99.90
8858;DHT22;4465;50.904;4.696;2022-12-10T03:53:51;-0.30;99.90
8858;DHT22;4465;50.904;4.696;2022-12-10T03:56:18;-0.30;99.90
8858;DHT22;4465;50.904;4.696;2022-12-10T03:58:44;-0.20;99.90
8858;DHT22;4465;50.904;4.696;2022-12-10T04:01:10;-0.30;99.90
8858;DHT22;4465;50.904;4.696;2022-12-10T04:03:38;-0.30;99.90
8858;DHT22;4465;50.904;4.696;2022-12-10T04:06:09;-0.20;99.90
8858;DHT22;4465;50.904;4.696;2022-12-10T04:08:39;-0.20;99.90
8858;DHT22;4465;50.904;4.696;2022-12-10T04:11:06;-0.20;99.90
8858;DHT22;4465;50.904;4.696;2022-12-10T04:13:34;-0.20;99.90
8858;DHT22;4465;50.904;4.696;2022-12-10T04:16:19;-0.20;99.90
8858;DHT22;4465;50.904;4.696;2022-12-10T04:19:00;-0.20;99.90
8858;DHT22;4465;50.904;4.696;2022-12-10T04:21:28;-0.20;99.90
8858;DHT22;4465;50.904;4.696;2022-12-10T04:24:13;-0.20;99.90
8858;DHT22;4465;50.904;4.696;2022-12-10T04:27:01;-0.20;99.90
8858;DHT22;4465;50.904;4.696;2022-12-10T04:29:29;-0.20;99.90
8858;DHT22;4465;50.904;4.696;2022-12-10T04:31:58;-0.20;99.90
8858;DHT22;4465;50.904;4.696;2022-12-10T04:34:25;-0.20;99.90
8858;DHT22;4465;50.904;4.696;2022-12-10T04:36:52;-0.20;99.90
8858;DHT22;4465;50.904;4.696;2022-12-10T04:39:19;-0.20;99.90
8858;DHT22;4465;50.904;4.696;2022-12-10T04:41:47;-0.20;99.90
8858;DHT22;4465;50.904;4.696;2022-12-10T04:44:14;-0.20;99.90
8858;DHT22;4465;50.904;4.696;2022-12-10T04:46:40;-0.20;99.90
8858;DHT22;4465;50.904;4.696;2022-12-10T04:49:07;-0.20;99.90
8858;DHT22;4465;50.904;4.696;2022-12-10T04:51:33;-0.20;99.90
8858;DHT22;4465;50.904;4.696;2022-12-10T04:54:00;-0.30;99.90
8858;DHT22;4465;50.904;4.696;2022-12-10T04:56:27;-0.30;99.90
8858;DHT22;4465;50.904;4.696;2022-12-10T04:58:56;-0.30;99.90
8858;DHT22;4465;50.904;4.696;2022-12-10T05:01:22;-0.30;99.90
8858;DHT22;4465;50.904;4.696;2022-12-10T05:03:49;-0.30;99.90
8858;DHT22;4465;50.904;4.696;2022-12-10T05:06:16;-0.30;99.90
8858;DHT22;4465;50.904;4.696;2022-12-10T05:08:43;-0.30;99.90
8858;DHT22;4465;50.904;4.696;2022-12-10T05:11:14;-0.30;99.90
8858;DHT22;4465;50.904;4.696;2022-12-10T05:13:41;-0.30;99.90
8858;DHT22;4465;50.904;4.696;2022-12-10T05:16:12;-0.30;99.90
8858;DHT22;4465;50.904;4.696;2022-12-10T05:18:38;-0.30;99.90
8858;DHT22;4465;50.904;4.696;2022-12-10T05:21:08;-0.20;99.90
8858;DHT22;4465;50.904;4.696;2022-12-10T05:23:37;-0.30;99.90
8858;DHT22;4465;50.904;4.696;2022-12-10T05:26:06;-0.30;99.90
8858;DHT22;4465;50.904;4.696;2022-12-10T05:28:53;-0.30;99.90
8858;DHT22;4465;50.904;4.696;2022-12-10T05:31:21;-0.30;99.90
8858;DHT22;4465;50.904;4.696;2022-12-10T05:33:49;-0.30;99.90
8858;DHT22;4465;50.904;4.696;2022-12-10T05:36:18;-0.30;99.90
8858;DHT22;4465;50.904;4.696;2022-12-10T05:38:45;-0.30;99.90
8858;DHT22;4465;50.904;4.696;2022-12-10T05:41:18;-0.30;99.90
8858;DHT22;4465;50.904;4.696;2022-12-10T05:43:45;-0.30;99.90
8858;DHT22;4465;50.904;4.696;2022-12-10T05:46:22;-0.30;99.90
8858;DHT22;4465;50.904;4.696;2022-12-10T05:48:49;-0.20;99.90
8858;DHT22;4465;50.904;4.696;2022-12-10T05:51:18;-0.40;99.90
8858;DHT22;4465;50.904;4.696;2022-12-10T05:53:44;-0.40;99.90
8858;DHT22;4465;50.904;4.696;2022-12-10T05:56:14;-0.30;99.90
8858;DHT22;4465;50.904;4.696;2022-12-10T05:58:42;-0.40;99.90
8858;DHT22;4465;50.904;4.696;2022-12-10T06:01:11;-0.30;99.90
8858;DHT22;4465;50.904;4.696;2022-12-10T06:03:38;-0.30;99.90
8858;DHT22;4465;50.904;4.696;2022-12-10T06:06:05;-0.30;99.90
8858;DHT22;4465;50.904;4.696;2022-12-10T06:08:32;-0.20;99.90
8858;DHT22;4465;50.904;4.696;2022-12-10T06:11:06;-0.30;99.90
8858;DHT22;4465;50.904;4.696;2022-12-10T06:13:32;-0.30;99.90
8858;DHT22;4465;50.904;4.696;2022-12-10T06:16:10;-0.30;99.90
8858;DHT22;4465;50.904;4.696;2022-12-10T06:18:37;-0.40;99.90
8858;DHT22;4465;50.904;4.696;2022-12-10T06:21:08;-0.40;99.90
8858;DHT22;4465;50.904;4.696;2022-12-10T06:23:39;-0.40;99.90
8858;DHT22;4465;50.904;4.696;2022-12-10T06:26:14;-0.40;99.90
8858;DHT22;4465;50.904;4.696;2022-12-10T06:28:44;-0.40;99.90
8858;DHT22;4465;50.904;4.696;2022-12-10T06:31:10;-0.40;99.90
8858;DHT22;4465;50.904;4.696;2022-12-10T06:33:36;-0.40;99.90
8858;DHT22;4465;50.904;4.696;2022-12-10T06:36:07;-0.40;99.90
8858;DHT22;4465;50.904;4.696;2022-12-10T06:38:35;-0.30;99.90
8858;DHT22;4465;50.904;4.696;2022-12-10T06:41:05;-0.30;99.90
8858;DHT22;4465;50.904;4.696;2022-12-10T06:43:31;-0.40;99.90
8858;DHT22;4465;50.904;4.696;2022-12-10T06:45:58;-0.40;99.90
8858;DHT22;4465;50.904;4.696;2022-12-10T06:48:24;-0.40;99.90
8858;DHT22;4465;50.904;4.696;2022-12-10T06:50:50;-0.30;99.90
8858;DHT22;4465;50.904;4.696;2022-12-10T06:53:17;-0.40;99.90
8858;DHT22;4465;50.904;4.696;2022-12-10T06:55:43;-0.40;99.90
8858;DHT22;4465;50.904;4.696;2022-12-10T06:58:09;-0.30;99.90
8858;DHT22;4465;50.904;4.696;2022-12-10T07:00:35;-0.40;99.90
8858;DHT22;4465;50.904;4.696;2022-12-10T07:03:07;-0.40;99.90
8858;DHT22;4465;50.904;4.696;2022-12-10T07:05:32;-0.40;99.90
8858;DHT22;4465;50.904;4.696;2022-12-10T07:07:58;-0.30;99.90
8858;DHT22;4465;50.904;4.696;2022-12-10T07:10:25;-0.30;99.90
8858;DHT22;4465;50.904;4.696;2022-12-10T07:12:53;-0.30;99.90
8858;DHT22;4465;50.904;4.696;2022-12-10T07:15:19;-0.30;99.90
8858;DHT22;4465;50.904;4.696;2022-12-10T07:17:46;-0.30;99.90
8858;DHT22;4465;50.904;4.696;2022-12-10T07:20:11;-0.30;99.90
8858;DHT22;4465;50.904;4.696;2022-12-10T07:22:38;-0.30;99.90
8858;DHT22;4465;50.904;4.696;2022-12-10T07:25:04;-0.40;99.90
8858;DHT22;4465;50.904;4.696;2022-12-10T07:27:31;-0.40;99.90
8858;DHT22;4465;50.904;4.696;2022-12-10T07:29:57;-0.40;99.90
8858;DHT22;4465;50.904;4.696;2022-12-10T07:32:24;-0.40;99.90
8858;DHT22;4465;50.904;4.696;2022-12-10T07:34:50;-0.40;99.90
8858;DHT22;4465;50.904;4.696;2022-12-10T07:37:16;-0.40;99.90
8858;DHT22;4465;50.904;4.696;2022-12-10T07:39:42;-0.40;99.90
8858;DHT22;4465;50.904;4.696;2022-12-10T07:42:09;-0.40;99.90
8858;DHT22;4465;50.904;4.696;2022-12-10T07:44:37;-0.40;99.90
8858;DHT22;4465;50.904;4.696;2022-12-10T07:47:03;-0.40;99.90
8858;DHT22;4465;50.904;4.696;2022-12-10T07:49:30;-0.40;99.90
8858;DHT22;4465;50.904;4.696;2022-12-10T07:51:59;-0.40;99.90
8858;DHT22;4465;50.904;4.696;2022-12-10T07:54:25;-0.40;99.90
8858;DHT22;4465;50.904;4.696;2022-12-10T07:56:51;-0.40;99.90
8858;DHT22;4465;50.904;4.696;2022-12-10T07:59:17;-0.40;99.90
8858;DHT22;4465;50.904;4.696;2022-12-10T08:01:43;-0.40;99.90
8858;DHT22;4465;50.904;4.696;2022-12-10T08:04:09;-0.40;99.90
8858;DHT22;4465;50.904;4.696;2022-12-10T08:06:36;-0.40;99.90
8858;DHT22;4465;50.904;4.696;2022-12-10T08:09:02;-0.30;99.90
8858;DHT22;4465;50.904;4.696;2022-12-10T08:11:28;-0.40;99.90
8858;DHT22;4465;50.904;4.696;2022-12-10T08:13:55;-0.40;99.90
8858;DHT22;4465;50.904;4.696;2022-12-10T08:16:23;-0.30;99.90
8858;DHT22;4465;50.904;4.696;2022-12-10T08:18:52;-0.20;99.90
8858;DHT22;4465;50.904;4.696;2022-12-10T08:21:23;-0.20;99.90
8858;DHT22;4465;50.904;4.696;2022-12-10T08:23:49;-0.20;99.90
8858;DHT22;4465;50.904;4.696;2022-12-10T08:26:20;-0.20;99.90
8858;DHT22;4465;50.904;4.696;2022-12-10T08:28:48;-0.20;99.90
8858;DHT22;4465;50.904;4.696;2022-12-10T08:31:15;-0.20;99.90
8858;DHT22;4465;50.904;4.696;2022-12-10T08:33:42;-0.30;99.90
8858;DHT22;4465;50.904;4.696;2022-12-10T08:36:10;-0.20;99.90
8858;DHT22;4465;50.904;4.696;2022-12-10T08:38:37;-0.20;99.90
8858;DHT22;4465;50.904;4.696;2022-12-10T08:41:09;-0.20;99.90
8858;DHT22;4465;50.904;4.696;2022-12-10T08:43:36;-0.20;99.90
8858;DHT22;4465;50.904;4.696;2022-12-10T08:46:02;-0.20;99.90
8858;DHT22;4465;50.904;4.696;2022-12-10T08:48:28;-0.20;99.90
8858;DHT22;4465;50.904;4.696;2022-12-10T08:50:55;-0.20;99.90
8858;DHT22;4465;50.904;4.696;2022-12-10T08:53:22;-0.20;99.90
8858;DHT22;4465;50.904;4.696;2022-12-10T08:55:53;-0.20;99.90
8858;DHT22;4465;50.904;4.696;2022-12-10T08:58:19;-0.20;99.90
8858;DHT22;4465;50.904;4.696;2022-12-10T09:00:46;-0.20;99.90
8858;DHT22;4465;50.904;4.696;2022-12-10T09:03:12;-0.20;99.90
8858;DHT22;4465;50.904;4.696;2022-12-10T09:05:40;-0.30;99.90
8858;DHT22;4465;50.904;4.696;2022-12-10T09:08:06;-0.30;99.90
8858;DHT22;4465;50.904;4.696;2022-12-10T09:10:32;-0.20;99.90
8858;DHT22;4465;50.904;4.696;2022-12-10T09:12:58;-0.10;99.90
8858;DHT22;4465;50.904;4.696;2022-12-10T09:15:24;-0.20;99.90
8858;DHT22;4465;50.904;4.696;2022-12-10T09:17:50;-0.20;99.90
8858;DHT22;4465;50.904;4.696;2022-12-10T09:20:16;-0.30;99.90
8858;DHT22;4465;50.904;4.696;2022-12-10T09:22:43;-0.30;99.90
8858;DHT22;4465;50.904;4.696;2022-12-10T09:25:09;-0.30;99.90
8858;DHT22;4465;50.904;4.696;2022-12-10T09:27:36;-0.30;99.90
8858;DHT22;4465;50.904;4.696;2022-12-10T09:30:04;-0.30;99.90
8858;DHT22;4465;50.904;4.696;2022-12-10T09:32:30;-0.30;99.90
8858;DHT22;4465;50.904;4.696;2022-12-10T09:34:56;-0.30;99.90
8858;DHT22;4465;50.904;4.696;2022-12-10T09:37:22;-0.10;99.90
8858;DHT22;4465;50.904;4.696;2022-12-10T09:39:48;-0.20;99.90
8858;DHT22;4465;50.904;4.696;2022-12-10T09:42:42;-0.20;99.90
8858;DHT22;4465;50.904;4.696;2022-12-10T09:45:49;-0.20;99.90
8858;DHT22;4465;50.904;4.696;2022-12-10T09:51:14;-0.20;99.90
8858;DHT22;4465;50.904;4.696;2022-12-10T09:53:43;-0.20;99.90
8858;DHT22;4465;50.904;4.696;2022-12-10T09:56:28;-0.20;99.90
8858;DHT22;4465;50.904;4.696;2022-12-10T09:58:56;-0.20;99.90
8858;DHT22;4465;50.904;4.696;2022-12-10T10:01:25;-0.20;99.90
8858;DHT22;4465;50.904;4.696;2022-12-10T10:03:53;-0.20;99.90
8858;DHT22;4465;50.904;4.696;2022-12-10T10:06:21;-0.10;99.90
8858;DHT22;4465;50.904;4.696;2022-12-10T10:08:51;-0.10;99.90
8858;DHT22;4465;50.904;4.696;2022-12-10T10:11:29;-0.10;99.90
8858;DHT22;4465;50.904;4.696;2022-12-10T10:14:04;-0.10;99.90
8858;DHT22;4465;50.904;4.696;2022-12-10T10:16:54;-0.10;99.90
8858;DHT22;4465;50.904;4.696;2022-12-10T10:19:29;-0.10;99.90
8858;DHT22;4465;50.904;4.696;2022-12-10T10:21:56;0.00;99.90
8858;DHT22;4465;50.904;4.696;2022-12-10T10:24:34;0.00;99.90
8858;DHT22;4465;50.904;4.696;2022-12-10T10:27:14;0.00;99.90
8858;DHT22;4465;50.904;4.696;2022-12-10T10:29:45;0.00;99.90
8858;DHT22;4465;50.904;4.696;2022-12-10T10:32:20;0.10;99.90
8858;DHT22;4465;50.904;4.696;2022-12-10T10:34:54;-0.10;99.90
8858;DHT22;4465;50.904;4.696;2022-12-10T10:37:26;-0.10;99.90
8858;DHT22;4465;50.904;4.696;2022-12-10T10:39:57;-0.10;99.90
8858;DHT22;4465;50.904;4.696;2022-12-10T10:42:39;-0.10;99.90
8858;DHT22;4465;50.904;4.696;2022-12-10T10:45:33;0.00;99.90
8858;DHT22;4465;50.904;4.696;2022-12-10T10:48:13;0.00;99.90
8858;DHT22;4465;50.904;4.696;2022-12-10T10:50:44;0.00;99.90
8858;DHT22;4465;50.904;4.696;2022-12-10T10:53:29;0.10;99.90
8858;DHT22;4465;50.904;4.696;2022-12-10T10:56:08;0.10;99.90
8858;DHT22;4465;50.904;4.696;2022-12-10T10:58:35;0.20;99.90
8858;DHT22;4465;50.904;4.696;2022-12-10T11:01:07;0.20;99.90
8858;DHT22;4465;50.904;4.696;2022-12-10T11:03:35;0.20;99.90
8858;DHT22;4465;50.904;4.696;2022-12-10T11:06:08;0.20;99.90
8858;DHT22;4465;50.904;4.696;2022-12-10T11:08:36;0.20;99.90
8858;DHT22;4465;50.904;4.696;2022-12-10T11:11:22;0.20;99.90
8858;DHT22;4465;50.904;4.696;2022-12-10T11:13:48;0.20;99.90
8858;DHT22;4465;50.904;4.696;2022-12-10T11:18:58;0.20;99.90
8858;DHT22;4465;50.904;4.696;2022-12-10T11:21:32;0.20;99.90
8858;DHT22;4465;50.904;4.696;2022-12-10T11:23:59;0.20;99.90
8858;DHT22;4465;50.904;4.696;2022-12-10T11:45:15;0.40;99.90
8858;DHT22;4465;50.904;4.696;2022-12-10T11:50:55;0.50;99.90
8858;DHT22;4465;50.904;4.696;2022-12-10T11:56:43;0.50;99.90
8858;DHT22;4465;50.904;4.696;2022-12-10T11:59:28;0.60;99.90
8858;DHT22;4465;50.904;4.696;2022-12-10T12:10:25;0.70;99.90
8858;DHT22;4465;50.904;4.696;2022-12-10T12:13:00;0.70;99.90
8858;DHT22;4465;50.904;4.696;2022-12-10T12:20:57;0.70;99.90
8858;DHT22;4465;50.904;4.696;2022-12-10T12:23:33;0.70;99.90
8858;DHT22;4465;50.904;4.696;2022-12-10T12:26:06;0.70;99.90
8858;DHT22;4465;50.904;4.696;2022-12-10T12:28:46;0.70;99.90
8858;DHT22;4465;50.904;4.696;2022-12-10T12:31:30;0.80;99.90
8858;DHT22;4465;50.904;4.696;2022-12-10T12:36:44;0.80;99.90
8858;DHT22;4465;50.904;4.696;2022-12-10T12:41:55;0.90;99.90
8858;DHT22;4465;50.904;4.696;2022-12-10T12:47:16;0.90;99.90
8858;DHT22;4465;50.904;4.696;2022-12-10T12:49:47;0.90;99.90
8858;DHT22;4465;50.904;4.696;2022-12-10T12:52:40;1.00;99.90
8858;DHT22;4465;50.904;4.696;2022-12-10T12:58:13;1.00;99.90
8858;DHT22;4465;50.904;4.696;2022-12-10T13:00:44;1.00;99.90
8858;DHT22;4465;50.904;4.696;2022-12-10T13:03:33;1.00;99.90
8858;DHT22;4465;50.904;4.696;2022-12-10T13:06:26;1.00;99.90
8858;DHT22;4465;50.904;4.696;2022-12-10T13:11:42;1.10;99.90
8858;DHT22;4465;50.904;4.696;2022-12-10T13:29:51;1.20;99.90
8858;DHT22;4465;50.904;4.696;2022-12-10T13:32:23;1.20;99.90
8858;DHT22;4465;50.904;4.696;2022-12-10T13:40:41;1.20;99.90
8858;DHT22;4465;50.904;4.696;2022-12-10T13:43:37;1.30;99.90
8858;DHT22;4465;50.904;4.696;2022-12-10T13:48:57;1.30;99.90
8858;DHT22;4465;50.904;4.696;2022-12-10T13:56:41;1.40;99.90
8858;DHT22;4465;50.904;4.696;2022-12-10T13:59:38;1.40;99.90
8858;DHT22;4465;50.904;4.696;2022-12-10T14:07:46;1.40;99.90
8858;DHT22;4465;50.904;4.696;2022-12-10T14:10:18;1.40;99.90
8858;DHT22;4465;50.904;4.696;2022-12-10T14:12:45;1.40;99.90
8858;DHT22;4465;50.904;4.696;2022-12-10T14:15:19;1.40;99.90
8858;DHT22;4465;50.904;4.696;2022-12-10T14:18:02;1.50;99.90
8858;DHT22;4465;50.904;4.696;2022-12-10T14:20:31;1.50;99.90
8858;DHT22;4465;50.904;4.696;2022-12-10T14:23:04;1.40;99.90
8858;DHT22;4465;50.904;4.696;2022-12-10T14:25:52;1.40;99.90
8858;DHT22;4465;50.904;4.696;2022-12-10T14:28:18;1.40;99.90
8858;DHT22;4465;50.904;4.696;2022-12-10T14:30:48;1.50;99.90
8858;DHT22;4465;50.904;4.696;2022-12-10T14:33:22;1.40;99.90
8858;DHT22;4465;50.904;4.696;2022-12-10T14:35:52;1.60;99.90
8858;DHT22;4465;50.904;4.696;2022-12-10T14:38:30;1.50;99.90
8858;DHT22;4465;50.904;4.696;2022-12-10T14:40:57;1.40;99.90
8858;DHT22;4465;50.904;4.696;2022-12-10T14:43:37;1.40;99.90
8858;DHT22;4465;50.904;4.696;2022-12-10T14:46:16;1.40;99.90
8858;DHT22;4465;50.904;4.696;2022-12-10T14:48:43;1.40;99.90
8858;DHT22;4465;50.904;4.696;2022-12-10T14:51:14;1.40;99.90
8858;DHT22;4465;50.904;4.696;2022-12-10T14:53:44;1.40;99.90
8858;DHT22;4465;50.904;4.696;2022-12-10T14:56:20;1.40;99.90
8858;DHT22;4465;50.904;4.696;2022-12-10T14:58:56;1.40;99.90
8858;DHT22;4465;50.904;4.696;2022-12-10T15:01:29;1.40;99.90
8858;DHT22;4465;50.904;4.696;2022-12-10T15:04:01;1.40;99.90
8858;DHT22;4465;50.904;4.696;2022-12-10T15:06:35;1.40;99.90
8858;DHT22;4465;50.904;4.696;2022-12-10T15:09:06;1.40;99.90
8858;DHT22;4465;50.904;4.696;2022-12-10T15:11:36;1.40;99.90
8858;DHT22;4465;50.904;4.696;2022-12-10T15:14:06;1.40;99.90
8858;DHT22;4465;50.904;4.696;2022-12-10T15:16:42;1.40;99.90
8858;DHT22;4465;50.904;4.696;2022-12-10T15:22:21;1.40;99.90
8858;DHT22;4465;50.904;4.696;2022-12-10T15:24:47;1.40;99.90
8858;DHT22;4465;50.904;4.696;2022-12-10T15:27:25;1.40;99.90
8858;DHT22;4465;50.904;4.696;2022-12-10T15:29:52;1.40;99.90
8858;DHT22;4465;50.904;4.696;2022-12-10T15:32:24;1.50;99.90
8858;DHT22;4465;50.904;4.696;2022-12-10T15:35:00;1.40;99.90
8858;DHT22;4465;50.904;4.696;2022-12-10T15:37:32;1.40;99.90
8858;DHT22;4465;50.904;4.696;2022-12-10T15:40:02;1.40;99.90
8858;DHT22;4465;50.904;4.696;2022-12-10T15:42:43;1.40;99.90
8858;DHT22;4465;50.904;4.696;2022-12-10T15:47:47;1.40;99.90
8858;DHT22;4465;50.904;4.696;2022-12-10T15:50:14;1.40;99.90
8858;DHT22;4465;50.904;4.696;2022-12-10T15:52:40;1.40;99.90
8858;DHT22;4465;50.904;4.696;2022-12-10T15:55:07;1.40;99.90
8858;DHT22;4465;50.904;4.696;2022-12-10T15:57:36;1.30;99.90
8858;DHT22;4465;50.904;4.696;2022-12-10T16:00:08;1.30;99.90
8858;DHT22;4465;50.904;4.696;2022-12-10T16:05:22;1.30;99.90
8858;DHT22;4465;50.904;4.696;2022-12-10T16:07:51;1.30;99.90
8858;DHT22;4465;50.904;4.696;2022-12-10T16:10:20;1.30;99.90
8858;DHT22;4465;50.904;4.696;2022-12-10T16:12:49;1.30;99.90
8858;DHT22;4465;50.904;4.696;2022-12-10T16:15:23;1.40;99.90
8858;DHT22;4465;50.904;4.696;2022-12-10T16:17:50;1.40;99.90
8858;DHT22;4465;50.904;4.696;2022-12-10T16:20:24;1.40;99.90
8858;DHT22;4465;50.904;4.696;2022-12-10T16:22:55;1.30;99.90
8858;DHT22;4465;50.904;4.696;2022-12-10T16:25:26;1.40;99.90
8858;DHT22;4465;50.904;4.696;2022-12-10T16:27:52;1.40;99.90
8858;DHT22;4465;50.904;4.696;2022-12-10T16:32:52;1.40;99.90
8858;DHT22;4465;50.904;4.696;2022-12-10T16:35:20;1.40;99.90
8858;DHT22;4465;50.904;4.696;2022-12-10T16:37:48;1.40;99.90
8858;DHT22;4465;50.904;4.696;2022-12-10T16:40:22;1.50;99.90
8858;DHT22;4465;50.904;4.696;2022-12-10T16:42:49;1.40;99.90
8858;DHT22;4465;50.904;4.696;2022-12-10T16:45:22;1.50;99.90
8858;DHT22;4465;50.904;4.696;2022-12-10T16:47:52;1.40;99.90
8858;DHT22;4465;50.904;4.696;2022-12-10T16:50:19;1.50;99.90
8858;DHT22;4465;50.904;4.696;2022-12-10T16:52:47;1.50;99.90
8858;DHT22;4465;50.904;4.696;2022-12-10T16:55:17;1.40;99.90
8858;DHT22;4465;50.904;4.696;2022-12-10T16:57:45;1.40;99.90
8858;DHT22;4465;50.904;4.696;2022-12-10T17:00:17;1.40;99.90
8858;DHT22;4465;50.904;4.696;2022-12-10T17:02:43;1.50;99.90
8858;DHT22;4465;50.904;4.696;2022-12-10T17:05:29;1.50;99.90
8858;DHT22;4465;50.904;4.696;2022-12-10T17:07:55;1.50;99.90
8858;DHT22;4465;50.904;4.696;2022-12-10T17:10:21;1.50;99.90
8858;DHT22;4465;50.904;4.696;2022-12-10T17:13:10;1.50;99.90
8858;DHT22;4465;50.904;4.696;2022-12-10T17:15:41;1.50;99.90
8858;DHT22;4465;50.904;4.696;2022-12-10T17:18:15;1.50;99.90
8858;DHT22;4465;50.904;4.696;2022-12-10T17:20:42;1.50;99.90
8858;DHT22;4465;50.904;4.696;2022-12-10T17:23:08;1.50;99.90
8858;DHT22;4465;50.904;4.696;2022-12-10T17:25:34;1.50;99.90
8858;DHT22;4465;50.904;4.696;2022-12-10T17:28:00;1.60;99.90
8858;DHT22;4465;50.904;4.696;2022-12-10T17:30:27;1.50;99.90
8858;DHT22;4465;50.904;4.696;2022-12-10T17:32:53;1.50;99.90
8858;DHT22;4465;50.904;4.696;2022-12-10T17:35:20;1.50;99.90
8858;DHT22;4465;50.904;4.696;2022-12-10T17:37:48;1.50;99.90
8858;DHT22;4465;50.904;4.696;2022-12-10T17:40:23;1.50;99.90
8858;DHT22;4465;50.904;4.696;2022-12-10T17:42:49;1.60;99.90
8858;DHT22;4465;50.904;4.696;2022-12-10T17:45:18;1.50;99.90
8858;DHT22;4465;50.904;4.696;2022-12-10T17:47:47;1.50;99.90
8858;DHT22;4465;50.904;4.696;2022-12-10T17:50:30;1.40;99.90
8858;DHT22;4465;50.904;4.696;2022-12-10T17:52:57;1.40;99.90
8858;DHT22;4465;50.904;4.696;2022-12-10T17:55:25;1.40;99.90
8858;DHT22;4465;50.904;4.696;2022-12-10T17:57:51;1.40;99.90
8858;DHT22;4465;50.904;4.696;2022-12-10T18:00:21;1.40;99.90
8858;DHT22;4465;50.904;4.696;2022-12-10T18:02:48;1.40;99.90
8858;DHT22;4465;50.904;4.696;2022-12-10T18:05:15;1.40;99.90
8858;DHT22;4465;50.904;4.696;2022-12-10T18:07:41;1.40;99.90
8858;DHT22;4465;50.904;4.696;2022-12-10T18:10:19;1.40;99.90
8858;DHT22;4465;50.904;4.696;2022-12-10T18:12:46;1.40;99.90
8858;DHT22;4465;50.904;4.696;2022-12-10T18:15:15;1.40;99.90
8858;DHT22;4465;50.904;4.696;2022-12-10T18:17:43;1.40;99.90
8858;DHT22;4465;50.904;4.696;2022-12-10T18:20:17;1.40;99.90
8858;DHT22;4465;50.904;4.696;2022-12-10T18:22:45;1.40;99.90
8858;DHT22;4465;50.904;4.696;2022-12-10T18:25:14;1.40;99.90
8858;DHT22;4465;50.904;4.696;2022-12-10T18:27:40;1.40;99.90
8858;DHT22;4465;50.904;4.696;2022-12-10T18:30:12;1.40;99.90
8858;DHT22;4465;50.904;4.696;2022-12-10T18:32:40;1.40;99.90
8858;DHT22;4465;50.904;4.696;2022-12-10T18:35:06;1.40;99.90
8858;DHT22;4465;50.904;4.696;2022-12-10T18:37:32;1.40;99.90
8858;DHT22;4465;50.904;4.696;2022-12-10T18:39:58;1.40;99.90
8858;DHT22;4465;50.904;4.696;2022-12-10T18:42:25;1.50;99.90
8858;DHT22;4465;50.904;4.696;2022-12-10T18:44:51;1.40;99.90
8858;DHT22;4465;50.904;4.696;2022-12-10T18:47:17;1.50;99.90
8858;DHT22;4465;50.904;4.696;2022-12-10T18:49:43;1.50;99.90